Time;durP1;ratioP1;P1;durP2;ratioP2;P2;SDS_P1;SDS_P2;PMS_P1;PMS_P2;Temp;Humidity;BMP_temperature;BMP_pressure;BME280_temperature;BME280_humidity;BME280_pressure;Samples;Min_cycle;Max_cycle;Signal;HPM_P1;HPM_P2
2021/06/16 00:01:12;;;;;;;19.13;4.57;;;;;;;;;;5061623;28;20184;-72
2021/06/16 00:03:37;;;;;;;9.63;2.75;;;;;;;;;;5060939;28;20215;-72
2021/06/16 00:06:03;;;;;;;7.40;2.90;;;;;;;;;;5065994;28;20177;-73
2021/06/16 00:08:28;;;;;;;8.52;3.25;;;;;;;;;;5066973;28;20250;-72
2021/06/16 00:10:53;;;;;;;4.10;3.13;;;;;;;;;;5057542;28;20181;-73
2021/06/16 00:13:19;;;;;;;4.30;2.90;;;;;;;;;;5063207;28;20189;-73
2021/06/16 00:15:45;;;;;;;7.82;4.30;;;;;;;;;;5062141;28;20177;-72
2021/06/16 00:18:10;;;;;;;7.18;3.47;;;;;;;;;;5065793;28;20655;-73
2021/06/16 00:20:37;;;;;;;7.30;3.10;;;;;;;;;;5063658;28;20180;-72
2021/06/16 00:23:03;;;;;;;8.35;3.40;;;;;;;;;;5063344;28;20169;-73
2021/06/16 00:25:28;;;;;;;7.93;3.20;;;;;;;;;;5062262;28;20610;-72
2021/06/16 00:27:53;;;;;;;9.63;3.80;;;;;;;;;;5065433;28;20180;-73
2021/06/16 00:30:19;;;;;;;4.85;3.38;;;;;;;;;;5062251;28;20208;-73
2021/06/16 00:32:44;;;;;;;6.35;3.03;;;;;;;;;;5059317;28;20271;-72
2021/06/16 00:35:10;;;;;;;7.90;3.25;;;;;;;;;;5067781;28;20176;-72
2021/06/16 00:37:35;;;;;;;10.35;3.33;;;;;;;;;;5064537;28;20180;-72
2021/06/16 00:40:04;;;;;;;5.10;3.33;;;;;;;;;;5063553;28;20184;-73
2021/06/16 00:42:29;;;;;;;5.70;3.95;;;;;;;;;;5068683;28;20229;-73
2021/06/16 00:44:54;;;;;;;7.75;3.33;;;;;;;;;;5069269;28;20252;-73
2021/06/16 00:47:19;;;;;;;11.52;4.10;;;;;;;;;;5067412;28;20178;-73
2021/06/16 00:49:45;;;;;;;5.63;3.20;;;;;;;;;;5068740;28;20220;-73
2021/06/16 00:52:10;;;;;;;9.73;4.05;;;;;;;;;;5065163;28;20177;-72
2021/06/16 00:54:35;;;;;;;7.43;4.15;;;;;;;;;;5062822;28;20221;-72
2021/06/16 00:57:01;;;;;;;9.68;3.92;;;;;;;;;;5068787;28;20177;-72
2021/06/16 00:59:32;;;;;;;8.02;3.33;;;;;;;;;;5060085;28;20576;-72
2021/06/16 01:01:57;;;;;;;6.22;3.83;;;;;;;;;;5044947;28;20177;-72
2021/06/16 01:04:23;;;;;;;14.85;4.82;;;;;;;;;;5051593;28;20201;-72
2021/06/16 01:06:49;;;;;;;6.72;3.70;;;;;;;;;;5048752;28;20279;-73
2021/06/16 01:09:19;;;;;;;5.05;3.38;;;;;;;;;;5050979;28;20201;-72
2021/06/16 01:11:50;;;;;;;5.90;3.40;;;;;;;;;;5061175;28;20176;-72
2021/06/16 01:14:19;;;;;;;4.82;3.10;;;;;;;;;;5066576;28;20694;-73
2021/06/16 01:16:48;;;;;;;5.57;3.10;;;;;;;;;;5050234;28;20189;-72
2021/06/16 01:19:22;;;;;;;4.82;3.53;;;;;;;;;;5050601;28;20691;-72
2021/06/16 01:21:50;;;;;;;6.60;3.70;;;;;;;;;;5057674;28;20188;-73
2021/06/16 01:24:18;;;;;;;9.43;4.27;;;;;;;;;;5053972;28;20201;-72
2021/06/16 01:26:45;;;;;;;8.25;3.83;;;;;;;;;;5055192;28;20181;-73
2021/06/16 01:29:10;;;;;;;8.05;4.32;;;;;;;;;;5050503;28;20204;-72
2021/06/16 01:31:37;;;;;;;6.38;3.40;;;;;;;;;;5057086;28;20185;-72
2021/06/16 01:34:03;;;;;;;5.90;3.85;;;;;;;;;;5054749;28;20250;-73
2021/06/16 01:36:28;;;;;;;7.38;3.80;;;;;;;;;;5055242;28;20192;-72
2021/06/16 01:38:54;;;;;;;6.93;3.95;;;;;;;;;;5051750;28;20469;-72
2021/06/16 01:41:19;;;;;;;8.90;3.80;;;;;;;;;;5064549;28;20180;-73
2021/06/16 01:43:47;;;;;;;7.28;4.50;;;;;;;;;;5061453;28;20256;-73
2021/06/16 01:46:13;;;;;;;8.43;4.57;;;;;;;;;;5082563;28;20195;-72
2021/06/16 01:48:39;;;;;;;10.52;4.00;;;;;;;;;;5084196;28;20193;-73
2021/06/16 01:51:06;;;;;;;7.73;3.27;;;;;;;;;;5085470;28;20185;-73
2021/06/16 01:53:31;;;;;;;6.57;4.40;;;;;;;;;;5081183;28;20193;-73
2021/06/16 01:55:56;;;;;;;10.70;4.25;;;;;;;;;;5086950;28;20188;-73
2021/06/16 01:58:22;;;;;;;8.80;3.87;;;;;;;;;;5080388;28;20252;-72
2021/06/16 02:00:50;;;;;;;9.13;4.63;;;;;;;;;;5085083;28;20170;-72
2021/06/16 02:03:15;;;;;;;6.28;3.70;;;;;;;;;;5085009;28;20209;-73
2021/06/16 02:05:41;;;;;;;10.75;4.63;;;;;;;;;;5081319;28;20199;-73
2021/06/16 02:08:12;;;;;;;7.68;4.47;;;;;;;;;;5083561;28;20181;-72
2021/06/16 02:10:41;;;;;;;8.40;4.10;;;;;;;;;;5081390;28;20189;-72
2021/06/16 02:13:08;;;;;;;5.95;4.03;;;;;;;;;;5065138;28;20200;-72
2021/06/16 02:15:41;;;;;;;6.23;3.87;;;;;;;;;;5058619;28;20180;-72
2021/06/16 02:18:08;;;;;;;6.55;3.70;;;;;;;;;;5054014;28;20932;-72
2021/06/16 02:20:33;;;;;;;9.10;4.53;;;;;;;;;;5055825;28;20195;-73
2021/06/16 02:22:58;;;;;;;9.47;4.20;;;;;;;;;;5054033;28;20170;-72
2021/06/16 02:25:24;;;;;;;7.43;4.03;;;;;;;;;;5055164;28;20235;-72
2021/06/16 02:27:49;;;;;;;8.20;4.40;;;;;;;;;;5055260;28;20273;-72
2021/06/16 02:30:16;;;;;;;7.03;5.18;;;;;;;;;;5053880;28;20215;-72
2021/06/16 02:32:41;;;;;;;9.00;4.97;;;;;;;;;;5052451;28;20189;-72
2021/06/16 02:35:06;;;;;;;13.13;5.30;;;;;;;;;;5062508;28;20246;-72
2021/06/16 02:37:32;;;;;;;5.67;4.40;;;;;;;;;;5071667;28;20185;-72
2021/06/16 02:40:01;;;;;;;6.75;4.60;;;;;;;;;;5079944;28;20196;-72
2021/06/16 02:42:27;;;;;;;6.93;4.30;;;;;;;;;;5063926;28;20189;-72
2021/06/16 02:44:52;;;;;;;7.30;4.43;;;;;;;;;;5054499;28;20205;-72
2021/06/16 02:47:18;;;;;;;8.40;4.60;;;;;;;;;;5070827;28;20224;-72
2021/06/16 02:49:53;;;;;;;6.20;4.37;;;;;;;;;;5066238;28;20284;-72
2021/06/16 02:52:19;;;;;;;11.30;4.23;;;;;;;;;;5051965;28;20262;-72
2021/06/16 02:54:45;;;;;;;10.13;5.20;;;;;;;;;;5054439;28;20335;-72
2021/06/16 02:57:12;;;;;;;7.90;3.80;;;;;;;;;;5053585;28;20203;-72
2021/06/16 02:59:38;;;;;;;9.67;4.70;;;;;;;;;;5050669;28;20188;-72
2021/06/16 03:02:04;;;;;;;6.73;4.87;;;;;;;;;;5053231;28;20183;-72
2021/06/16 03:04:29;;;;;;;7.00;4.73;;;;;;;;;;5054443;28;20196;-72
2021/06/16 03:06:56;;;;;;;10.67;5.93;;;;;;;;;;5053893;28;20193;-73
2021/06/16 03:09:22;;;;;;;11.80;4.80;;;;;;;;;;5053943;28;20321;-72
2021/06/16 03:11:49;;;;;;;6.60;4.87;;;;;;;;;;5051949;28;20604;-73
2021/06/16 03:14:14;;;;;;;8.60;4.53;;;;;;;;;;5054183;28;20232;-72
2021/06/16 03:16:41;;;;;;;7.63;5.57;;;;;;;;;;5052430;28;20196;-72
2021/06/16 03:19:07;;;;;;;9.90;5.60;;;;;;;;;;5052317;28;20284;-72
2021/06/16 03:21:34;;;;;;;9.73;5.00;;;;;;;;;;5053007;28;20185;-74
2021/06/16 03:23:59;;;;;;;10.40;4.63;;;;;;;;;;5056997;28;20218;-71
2021/06/16 03:26:27;;;;;;;10.80;5.47;;;;;;;;;;5057797;28;20204;-71
2021/06/16 03:28:53;;;;;;;7.90;5.00;;;;;;;;;;5050651;28;20204;-72
2021/06/16 03:31:20;;;;;;;8.53;5.37;;;;;;;;;;5055581;28;20181;-71
2021/06/16 03:33:46;;;;;;;7.10;5.17;;;;;;;;;;5051477;28;20577;-72
2021/06/16 03:36:12;;;;;;;10.10;5.10;;;;;;;;;;5052729;28;20190;-72
2021/06/16 03:38:37;;;;;;;7.43;4.90;;;;;;;;;;5050263;28;20230;-71
2021/06/16 03:41:03;;;;;;;8.63;5.00;;;;;;;;;;5053634;28;20189;-71
2021/06/16 03:43:28;;;;;;;7.20;5.05;;;;;;;;;;5049806;28;20924;-71
2021/06/16 03:45:54;;;;;;;8.20;4.85;;;;;;;;;;5049343;28;20890;-71
2021/06/16 03:48:21;;;;;;;9.23;5.37;;;;;;;;;;5051832;28;20191;-74
2021/06/16 03:50:46;;;;;;;9.53;5.90;;;;;;;;;;5065719;28;20254;-72
2021/06/16 03:53:13;;;;;;;11.17;5.80;;;;;;;;;;5064345;28;20746;-72
2021/06/16 03:55:41;;;;;;;9.10;5.40;;;;;;;;;;5063222;28;20184;-71
2021/06/16 03:58:07;;;;;;;8.93;5.78;;;;;;;;;;5049787;28;20180;-71
2021/06/16 04:00:33;;;;;;;9.57;4.97;;;;;;;;;;5051789;28;20201;-72
2021/06/16 04:02:58;;;;;;;8.07;4.93;;;;;;;;;;5057695;28;20180;-74
2021/06/16 04:05:23;;;;;;;9.47;5.07;;;;;;;;;;5051403;28;20185;-74
2021/06/16 04:07:50;;;;;;;7.38;4.80;;;;;;;;;;5055113;28;21498;-74
2021/06/16 04:10:16;;;;;;;9.32;5.13;;;;;;;;;;5056657;28;20230;-72
2021/06/16 04:12:41;;;;;;;8.68;6.13;;;;;;;;;;5053492;28;20173;-71
2021/06/16 04:15:07;;;;;;;11.55;5.90;;;;;;;;;;5057273;28;20216;-72
2021/06/16 04:17:32;;;;;;;8.45;5.22;;;;;;;;;;5051005;28;20188;-71
2021/06/16 04:19:57;;;;;;;9.13;5.00;;;;;;;;;;5050834;28;20192;-72
2021/06/16 04:22:23;;;;;;;7.80;5.32;;;;;;;;;;5054316;28;20236;-72
2021/06/16 04:24:48;;;;;;;6.95;4.78;;;;;;;;;;5060533;28;20570;-71
2021/06/16 04:27:13;;;;;;;7.60;4.38;;;;;;;;;;5049418;28;20174;-72
2021/06/16 04:29:41;;;;;;;11.00;4.82;;;;;;;;;;5053731;28;20574;-72
2021/06/16 04:32:07;;;;;;;6.53;4.28;;;;;;;;;;5053415;28;20662;-72
2021/06/16 04:34:32;;;;;;;8.25;4.88;;;;;;;;;;5059947;28;20212;-72
2021/06/16 04:36:57;;;;;;;7.35;4.10;;;;;;;;;;5052432;28;20234;-72
2021/06/16 04:39:23;;;;;;;6.40;4.45;;;;;;;;;;5051875;28;20509;-72
2021/06/16 04:41:48;;;;;;;6.68;4.50;;;;;;;;;;5049110;28;20654;-72
2021/06/16 04:44:13;;;;;;;7.00;4.47;;;;;;;;;;5051407;28;20286;-72
2021/06/16 04:46:38;;;;;;;6.95;4.70;;;;;;;;;;5050688;28;20617;-72
2021/06/16 04:49:04;;;;;;;6.03;4.05;;;;;;;;;;5051564;28;20210;-72
2021/06/16 04:51:29;;;;;;;8.70;4.38;;;;;;;;;;5052522;28;20177;-71
2021/06/16 04:53:54;;;;;;;6.70;4.45;;;;;;;;;;5052201;28;20196;-72
2021/06/16 04:56:19;;;;;;;8.90;4.28;;;;;;;;;;5060005;28;20181;-72
2021/06/16 04:58:45;;;;;;;8.90;5.10;;;;;;;;;;5051066;28;20196;-72
2021/06/16 05:01:10;;;;;;;7.35;3.83;;;;;;;;;;5052132;28;20287;-72
2021/06/16 05:03:35;;;;;;;9.73;4.25;;;;;;;;;;5055723;28;20233;-72
2021/06/16 05:06:00;;;;;;;9.60;4.50;;;;;;;;;;5054195;28;20288;-72
2021/06/16 05:08:26;;;;;;;9.25;3.70;;;;;;;;;;5062234;28;20200;-72
2021/06/16 05:10:51;;;;;;;8.50;4.15;;;;;;;;;;5049872;28;20185;-72
2021/06/16 05:13:20;;;;;;;9.30;4.50;;;;;;;;;;5049661;28;20201;-72
2021/06/16 05:15:45;;;;;;;6.60;4.50;;;;;;;;;;5060342;28;20173;-71
2021/06/16 05:18:10;;;;;;;10.10;4.55;;;;;;;;;;5052050;28;20184;-72
2021/06/16 05:20:36;;;;;;;5.38;4.22;;;;;;;;;;5050880;28;20236;-72
2021/06/16 05:23:03;;;;;;;8.97;4.27;;;;;;;;;;5050397;28;20280;-72
2021/06/16 05:25:28;;;;;;;8.20;5.00;;;;;;;;;;5046903;28;20430;-71
2021/06/16 05:27:53;;;;;;;4.70;3.92;;;;;;;;;;5051304;28;20266;-72
2021/06/16 05:30:19;;;;;;;6.00;4.10;;;;;;;;;;5058421;28;21767;-72
2021/06/16 05:32:45;;;;;;;10.25;4.55;;;;;;;;;;5056326;28;20181;-73
2021/06/16 05:35:10;;;;;;;7.72;4.97;;;;;;;;;;5049941;28;20185;-72
2021/06/16 05:37:36;;;;;;;8.30;4.45;;;;;;;;;;5056034;28;20192;-71
2021/06/16 05:40:02;;;;;;;7.28;4.65;;;;;;;;;;5055914;28;20692;-72
2021/06/16 05:42:27;;;;;;;6.15;3.90;;;;;;;;;;5055480;28;20188;-72
2021/06/16 05:44:52;;;;;;;7.13;4.15;;;;;;;;;;5049910;28;20573;-71
2021/06/16 05:47:17;;;;;;;8.30;4.78;;;;;;;;;;5051201;28;21171;-71
2021/06/16 05:49:42;;;;;;;8.43;4.38;;;;;;;;;;5051225;28;20206;-71
2021/06/16 05:52:08;;;;;;;10.73;4.20;;;;;;;;;;5050271;28;20749;-72
2021/06/16 05:54:36;;;;;;;8.90;4.15;;;;;;;;;;5051773;28;20250;-72
2021/06/16 05:57:01;;;;;;;8.38;4.55;;;;;;;;;;5048582;28;20189;-72
2021/06/16 05:59:26;;;;;;;12.23;4.63;;;;;;;;;;5060486;28;20655;-72
2021/06/16 06:01:52;;;;;;;9.38;4.03;;;;;;;;;;5049796;28;20180;-71
2021/06/16 06:04:17;;;;;;;9.00;4.20;;;;;;;;;;5051169;28;20212;-72
2021/06/16 06:06:42;;;;;;;10.07;4.38;;;;;;;;;;5057101;28;20489;-72
2021/06/16 06:09:08;;;;;;;13.25;4.35;;;;;;;;;;5051027;28;20196;-71
2021/06/16 06:11:34;;;;;;;7.97;4.22;;;;;;;;;;5055190;28;20327;-71
2021/06/16 06:14:00;;;;;;;10.25;4.50;;;;;;;;;;5055941;28;20250;-72
2021/06/16 06:16:25;;;;;;;7.68;4.20;;;;;;;;;;5061747;28;20172;-71
2021/06/16 06:18:51;;;;;;;9.57;5.55;;;;;;;;;;5052400;28;20535;-71
2021/06/16 06:21:16;;;;;;;6.45;4.55;;;;;;;;;;5057630;28;20661;-71
2021/06/16 06:23:41;;;;;;;5.82;4.35;;;;;;;;;;5055886;28;20199;-72
2021/06/16 06:26:06;;;;;;;9.02;4.75;;;;;;;;;;5054903;28;20177;-72
2021/06/16 06:28:31;;;;;;;8.80;4.30;;;;;;;;;;5054202;28;20515;-71
2021/06/16 06:30:57;;;;;;;6.60;4.53;;;;;;;;;;5053693;28;20184;-72
2021/06/16 06:33:22;;;;;;;9.30;4.70;;;;;;;;;;5053252;28;20438;-72
2021/06/16 06:35:47;;;;;;;10.97;5.00;;;;;;;;;;5055181;28;20942;-72
2021/06/16 06:38:13;;;;;;;10.60;5.07;;;;;;;;;;5061231;28;20417;-72
2021/06/16 06:40:39;;;;;;;7.22;3.90;;;;;;;;;;5057273;28;20447;-72
2021/06/16 06:43:04;;;;;;;7.70;4.38;;;;;;;;;;5070501;28;20562;-71
2021/06/16 06:45:29;;;;;;;8.63;4.57;;;;;;;;;;5062540;28;20185;-72
2021/06/16 06:47:54;;;;;;;6.93;4.10;;;;;;;;;;5056735;28;20429;-71
2021/06/16 06:50:20;;;;;;;8.02;3.92;;;;;;;;;;5061289;28;20204;-72
2021/06/16 06:52:47;;;;;;;7.50;4.63;;;;;;;;;;5069408;28;20189;-72
2021/06/16 06:55:12;;;;;;;5.10;3.80;;;;;;;;;;5078259;28;20177;-71
2021/06/16 06:57:38;;;;;;;6.93;3.92;;;;;;;;;;5068945;28;20689;-72
2021/06/16 07:00:07;;;;;;;6.63;3.92;;;;;;;;;;5067428;28;20739;-71
2021/06/16 07:02:33;;;;;;;7.53;4.03;;;;;;;;;;5063125;28;20212;-72
2021/06/16 07:04:58;;;;;;;8.98;4.28;;;;;;;;;;5070867;28;20213;-71
2021/06/16 07:07:23;;;;;;;7.13;4.00;;;;;;;;;;5067954;28;20650;-72
2021/06/16 07:09:49;;;;;;;6.10;4.07;;;;;;;;;;5078342;28;20444;-71
2021/06/16 07:12:15;;;;;;;6.75;3.28;;;;;;;;;;5083260;28;20169;-72
2021/06/16 07:14:40;;;;;;;6.87;4.00;;;;;;;;;;5074479;28;20216;-72
2021/06/16 07:17:08;;;;;;;8.35;4.05;;;;;;;;;;5069390;28;20428;-72
2021/06/16 07:19:33;;;;;;;6.82;3.60;;;;;;;;;;5076972;28;20191;-72
2021/06/16 07:21:58;;;;;;;4.57;3.28;;;;;;;;;;5063783;28;20564;-72
2021/06/16 07:24:24;;;;;;;7.07;3.47;;;;;;;;;;5055844;28;20213;-72
2021/06/16 07:26:49;;;;;;;7.38;3.60;;;;;;;;;;5057961;28;20531;-72
2021/06/16 07:29:14;;;;;;;8.95;3.97;;;;;;;;;;5058472;28;20204;-72
2021/06/16 07:31:39;;;;;;;9.30;4.05;;;;;;;;;;5058396;28;20582;-72
2021/06/16 07:34:05;;;;;;;6.35;3.35;;;;;;;;;;5052611;28;20280;-72
2021/06/16 07:36:30;;;;;;;5.68;3.03;;;;;;;;;;5051313;28;20271;-72
2021/06/16 07:38:55;;;;;;;6.68;3.35;;;;;;;;;;5051836;28;20193;-73
2021/06/16 07:41:20;;;;;;;4.53;2.88;;;;;;;;;;5059361;28;20788;-72
2021/06/16 07:43:46;;;;;;;8.27;3.20;;;;;;;;;;5047968;28;20763;-72
2021/06/16 07:46:11;;;;;;;5.10;3.20;;;;;;;;;;5050715;28;20487;-74
2021/06/16 07:48:36;;;;;;;6.55;3.17;;;;;;;;;;5052406;28;20209;-74
2021/06/16 07:51:02;;;;;;;7.43;3.20;;;;;;;;;;5060038;28;20263;-74
2021/06/16 07:53:27;;;;;;;8.82;2.90;;;;;;;;;;5054016;28;20216;-74
2021/06/16 07:55:52;;;;;;;9.68;3.42;;;;;;;;;;5057451;28;20177;-74
2021/06/16 07:58:18;;;;;;;4.03;2.67;;;;;;;;;;5051033;28;20196;-75
2021/06/16 08:00:43;;;;;;;5.57;3.10;;;;;;;;;;5055894;28;20202;-73
2021/06/16 08:03:08;;;;;;;8.30;3.50;;;;;;;;;;5055255;28;20201;-74
2021/06/16 08:05:33;;;;;;;7.27;2.57;;;;;;;;;;5059956;28;20424;-73
2021/06/16 08:07:59;;;;;;;5.30;2.40;;;;;;;;;;5053445;28;20417;-75
2021/06/16 08:10:24;;;;;;;5.88;2.65;;;;;;;;;;5059212;28;20362;-74
2021/06/16 08:12:49;;;;;;;5.65;2.70;;;;;;;;;;5053896;28;20180;-75
2021/06/16 08:15:15;;;;;;;6.97;2.60;;;;;;;;;;5053455;28;20642;-74
2021/06/16 08:17:40;;;;;;;7.60;2.70;;;;;;;;;;5050444;28;20233;-76
2021/06/16 08:20:06;;;;;;;8.88;3.30;;;;;;;;;;5057321;28;20185;-74
2021/06/16 08:22:31;;;;;;;6.32;2.58;;;;;;;;;;5055424;28;20188;-74
2021/06/16 08:25:00;;;;;;;5.22;2.40;;;;;;;;;;5061125;28;20192;-74
2021/06/16 08:27:25;;;;;;;10.15;2.50;;;;;;;;;;5053824;28;20180;-73
2021/06/16 08:29:50;;;;;;;6.43;2.30;;;;;;;;;;5056500;28;20553;-73
2021/06/16 08:32:16;;;;;;;6.47;2.90;;;;;;;;;;5055535;28;20180;-73
2021/06/16 08:34:41;;;;;;;5.87;2.33;;;;;;;;;;5054964;28;21015;-73
2021/06/16 08:37:06;;;;;;;6.10;2.67;;;;;;;;;;5056851;28;20430;-73
2021/06/16 08:39:31;;;;;;;6.18;2.63;;;;;;;;;;5057945;28;20189;-73
2021/06/16 08:41:57;;;;;;;4.63;2.10;;;;;;;;;;5055107;28;20177;-74
2021/06/16 08:44:22;;;;;;;4.45;2.20;;;;;;;;;;5052190;28;20391;-73
2021/06/16 08:46:49;;;;;;;3.90;2.10;;;;;;;;;;5049062;28;20264;-74
2021/06/16 08:49:14;;;;;;;5.55;2.45;;;;;;;;;;5050585;28;20250;-72
2021/06/16 08:51:40;;;;;;;3.78;2.38;;;;;;;;;;5053281;28;20177;-74
2021/06/16 08:54:07;;;;;;;5.35;2.25;;;;;;;;;;5051904;28;20810;-72
2021/06/16 08:56:32;;;;;;;5.38;2.67;;;;;;;;;;5058699;28;20188;-72
2021/06/16 08:58:58;;;;;;;6.47;2.60;;;;;;;;;;5053219;28;20189;-74
2021/06/16 09:01:23;;;;;;;5.75;2.30;;;;;;;;;;5058036;28;20789;-74
2021/06/16 09:03:48;;;;;;;4.23;2.33;;;;;;;;;;5053550;28;20237;-75
2021/06/16 09:06:15;;;;;;;4.95;2.70;;;;;;;;;;5057632;28;20492;-74
2021/06/16 09:08:51;;;;;;;3.95;2.58;;;;;;;;;;5054051;28;20347;-73
2021/06/16 09:11:17;;;;;;;4.03;2.15;;;;;;;;;;5047772;28;20189;-75
2021/06/16 09:13:42;;;;;;;4.65;2.45;;;;;;;;;;5055388;28;20193;-74
2021/06/16 09:16:27;;;;;;;9.57;2.60;;;;;;;;;;5060177;28;20646;-74
2021/06/16 09:18:53;;;;;;;6.25;2.78;;;;;;;;;;5054716;28;20671;-73
2021/06/16 09:21:30;;;;;;;6.22;2.55;;;;;;;;;;5052950;28;20514;-74
2021/06/16 09:23:55;;;;;;;6.32;2.90;;;;;;;;;;5052063;28;20254;-75
2021/06/16 09:26:21;;;;;;;2.73;2.27;;;;;;;;;;5056579;28;20248;-75
2021/06/16 09:28:48;;;;;;;4.32;2.38;;;;;;;;;;5052737;28;20208;-75
2021/06/16 09:31:15;;;;;;;5.28;2.55;;;;;;;;;;5052389;28;20662;-75
2021/06/16 09:33:41;;;;;;;6.80;3.33;;;;;;;;;;5054109;28;20227;-74
2021/06/16 09:36:10;;;;;;;3.92;2.47;;;;;;;;;;5049497;28;20189;-73
2021/06/16 09:38:36;;;;;;;3.90;2.70;;;;;;;;;;5058349;28;20188;-75
2021/06/16 09:41:02;;;;;;;3.95;2.90;;;;;;;;;;5059631;28;20177;-75
2021/06/16 09:43:28;;;;;;;5.43;2.90;;;;;;;;;;5055934;28;20697;-74
2021/06/16 09:46:00;;;;;;;5.40;2.88;;;;;;;;;;5059614;28;20177;-74
2021/06/16 09:48:25;;;;;;;3.25;2.35;;;;;;;;;;5056333;28;20194;-76
2021/06/16 09:50:52;;;;;;;4.28;2.67;;;;;;;;;;5059409;28;20535;-75
2021/06/16 09:53:17;;;;;;;4.28;2.50;;;;;;;;;;5056092;28;20255;-74
2021/06/16 09:55:42;;;;;;;4.70;2.80;;;;;;;;;;5054681;28;20177;-74
2021/06/16 09:58:08;;;;;;;6.38;3.00;;;;;;;;;;5055908;28;20422;-74
2021/06/16 10:00:35;;;;;;;4.68;2.63;;;;;;;;;;5055621;28;20270;-75
2021/06/16 10:03:07;;;;;;;3.28;2.80;;;;;;;;;;5053294;28;20259;-75
2021/06/16 10:05:32;;;;;;;3.92;2.47;;;;;;;;;;5058556;28;20196;-75
2021/06/16 10:07:58;;;;;;;5.97;3.10;;;;;;;;;;5061419;28;20628;-75
2021/06/16 10:10:23;;;;;;;3.63;3.05;;;;;;;;;;5054267;28;20207;-75
2021/06/16 10:12:51;;;;;;;8.15;2.50;;;;;;;;;;5053898;28;20185;-75
2021/06/16 10:15:21;;;;;;;5.65;2.47;;;;;;;;;;5055868;28;20546;-74
2021/06/16 10:17:47;;;;;;;4.45;2.80;;;;;;;;;;5055509;28;20335;-74
2021/06/16 10:20:13;;;;;;;3.78;2.65;;;;;;;;;;5054708;28;20639;-74
2021/06/16 10:22:38;;;;;;;4.50;2.63;;;;;;;;;;5053344;28;20193;-74
2021/06/16 10:25:04;;;;;;;3.92;2.45;;;;;;;;;;5058118;28;20200;-74
2021/06/16 10:27:40;;;;;;;4.22;2.70;;;;;;;;;;5054880;28;20176;-74
2021/06/16 10:30:08;;;;;;;3.67;1.92;;;;;;;;;;5057938;28;20204;-74
2021/06/16 10:32:44;;;;;;;4.15;2.30;;;;;;;;;;5053299;28;20238;-75
2021/06/16 10:35:11;;;;;;;3.30;2.42;;;;;;;;;;5054986;28;20200;-74
2021/06/16 10:37:38;;;;;;;4.47;2.60;;;;;;;;;;5059399;28;20176;-73
2021/06/16 10:40:12;;;;;;;3.17;2.63;;;;;;;;;;5057684;28;20666;-74
2021/06/16 10:42:56;;;;;;;2.83;2.20;;;;;;;;;;5055299;28;20181;-73
2021/06/16 10:45:21;;;;;;;5.03;2.75;;;;;;;;;;5050818;28;20188;-74
2021/06/16 10:48:06;;;;;;;4.45;2.40;;;;;;;;;;5055609;28;20195;-72
2021/06/16 10:50:46;;;;;;;2.30;2.10;;;;;;;;;;5049686;28;20204;-74
2021/06/16 10:53:19;;;;;;;4.80;2.72;;;;;;;;;;5053391;28;20257;-74
2021/06/16 10:55:57;;;;;;;5.05;2.88;;;;;;;;;;5053717;28;20406;-74
2021/06/16 10:58:32;;;;;;;5.63;2.55;;;;;;;;;;5052752;28;20190;-74
2021/06/16 11:01:13;;;;;;;8.77;3.00;;;;;;;;;;5060156;28;20180;-74
2021/06/16 11:03:53;;;;;;;5.15;2.85;;;;;;;;;;5059985;28;20196;-75
2021/06/16 11:06:37;;;;;;;7.50;3.13;;;;;;;;;;5058659;28;20210;-76
2021/06/16 11:09:14;;;;;;;4.32;3.35;;;;;;;;;;5065436;28;20209;-75
2021/06/16 11:11:52;;;;;;;4.95;2.97;;;;;;;;;;5089810;28;20226;-76
2021/06/16 11:14:32;;;;;;;4.78;3.58;;;;;;;;;;5083289;28;20227;-75
2021/06/16 11:17:10;;;;;;;4.82;3.08;;;;;;;;;;5083820;28;20188;-75
2021/06/16 11:19:36;;;;;;;4.13;2.60;;;;;;;;;;5081581;28;20197;-76
2021/06/16 11:22:04;;;;;;;5.72;3.03;;;;;;;;;;5082067;28;20204;-75
2021/06/16 11:24:48;;;;;;;4.63;3.00;;;;;;;;;;5081240;28;20210;-75
2021/06/16 11:27:33;;;;;;;5.18;3.58;;;;;;;;;;5068369;28;20189;-76
2021/06/16 11:30:08;;;;;;;6.10;3.05;;;;;;;;;;5079133;28;20322;-75
2021/06/16 11:32:33;;;;;;;5.75;3.92;;;;;;;;;;5077776;28;20175;-76
2021/06/16 11:34:58;;;;;;;5.00;3.47;;;;;;;;;;5076875;28;20233;-76
2021/06/16 11:37:42;;;;;;;6.57;3.20;;;;;;;;;;5080037;28;20412;-75
2021/06/16 11:40:08;;;;;;;5.38;3.53;;;;;;;;;;5066356;28;20432;-73
2021/06/16 11:42:38;;;;;;;3.55;3.17;;;;;;;;;;5054504;28;20645;-74
2021/06/16 11:45:05;;;;;;;7.80;4.60;;;;;;;;;;5055189;28;20592;-75
2021/06/16 11:47:30;;;;;;;6.75;3.22;;;;;;;;;;5056402;28;20210;-75
2021/06/16 11:50:02;;;;;;;7.70;4.37;;;;;;;;;;5055386;28;20208;-75
2021/06/16 11:52:27;;;;;;;6.63;3.58;;;;;;;;;;5057504;28;20420;-75
2021/06/16 11:54:55;;;;;;;5.83;4.43;;;;;;;;;;5056636;28;20731;-72
2021/06/16 11:57:25;;;;;;;7.57;3.85;;;;;;;;;;5053372;28;20421;-76
2021/06/16 11:59:52;;;;;;;6.53;4.20;;;;;;;;;;5060112;28;20171;-74
2021/06/16 12:02:24;;;;;;;5.05;3.67;;;;;;;;;;5051845;28;20670;-76
2021/06/16 12:04:53;;;;;;;9.27;3.80;;;;;;;;;;5062294;28;20196;-74
2021/06/16 12:07:19;;;;;;;7.18;4.00;;;;;;;;;;5053560;28;20191;-75
2021/06/16 12:09:47;;;;;;;6.65;4.13;;;;;;;;;;5053721;28;20269;-74
2021/06/16 12:12:13;;;;;;;7.43;4.47;;;;;;;;;;5052878;28;20230;-75
2021/06/16 12:14:38;;;;;;;5.20;3.97;;;;;;;;;;5060690;28;20196;-74
2021/06/16 12:17:04;;;;;;;5.38;3.70;;;;;;;;;;5054681;28;20209;-74
2021/06/16 12:19:32;;;;;;;4.70;3.63;;;;;;;;;;5058901;28;20193;-74
2021/06/16 12:21:57;;;;;;;9.75;4.25;;;;;;;;;;5051956;28;20181;-74
2021/06/16 12:24:27;;;;;;;7.73;4.30;;;;;;;;;;5060365;28;20252;-74
2021/06/16 12:27:01;;;;;;;7.35;4.20;;;;;;;;;;5053309;28;20503;-74
2021/06/16 12:29:26;;;;;;;4.93;3.75;;;;;;;;;;5056721;28;20200;-73
2021/06/16 12:31:53;;;;;;;7.20;3.90;;;;;;;;;;5052856;28;20241;-73
2021/06/16 12:34:29;;;;;;;9.20;4.00;;;;;;;;;;5049757;28;20198;-73
2021/06/16 12:37:08;;;;;;;6.65;3.13;;;;;;;;;;5050870;28;20183;-75
2021/06/16 12:39:34;;;;;;;4.40;3.25;;;;;;;;;;5062656;28;20204;-74
2021/06/16 12:42:08;;;;;;;3.95;3.53;;;;;;;;;;5053325;28;20562;-75
2021/06/16 12:44:43;;;;;;;9.93;4.97;;;;;;;;;;5051335;28;20302;-75
2021/06/16 12:47:13;;;;;;;5.22;3.50;;;;;;;;;;5052207;28;20263;-74
2021/06/16 12:49:47;;;;;;;6.88;3.90;;;;;;;;;;5050595;28;20207;-74
2021/06/16 12:52:14;;;;;;;5.55;4.65;;;;;;;;;;5052537;28;20176;-76
2021/06/16 12:54:39;;;;;;;5.15;3.60;;;;;;;;;;5054666;28;20780;-74
2021/06/16 12:57:09;;;;;;;4.33;3.50;;;;;;;;;;5054270;28;20176;-75
2021/06/16 12:59:34;;;;;;;5.15;4.20;;;;;;;;;;5052100;28;20301;-74
2021/06/16 13:01:59;;;;;;;5.13;4.10;;;;;;;;;;5054744;28;20177;-74
2021/06/16 13:04:43;;;;;;;4.43;3.88;;;;;;;;;;5054483;28;20246;-75
2021/06/16 13:07:08;;;;;;;6.95;4.18;;;;;;;;;;5059512;28;21828;-75
2021/06/16 13:09:33;;;;;;;5.88;3.85;;;;;;;;;;5055662;28;20209;-75
2021/06/16 13:12:06;;;;;;;6.23;3.50;;;;;;;;;;5055282;28;20306;-74
2021/06/16 13:14:41;;;;;;;6.65;4.65;;;;;;;;;;5052357;28;20237;-74
2021/06/16 13:17:08;;;;;;;4.00;3.30;;;;;;;;;;5051322;28;20255;-75
2021/06/16 13:19:53;;;;;;;8.77;3.90;;;;;;;;;;5056293;28;20592;-73
2021/06/16 13:22:18;;;;;;;5.82;4.75;;;;;;;;;;5051568;28;20329;-73
2021/06/16 13:24:51;;;;;;;6.83;4.80;;;;;;;;;;5057430;28;20758;-74
2021/06/16 13:27:16;;;;;;;7.10;4.40;;;;;;;;;;5052021;28;20172;-74
2021/06/16 13:29:42;;;;;;;6.13;3.60;;;;;;;;;;5060245;28;20653;-74
2021/06/16 13:32:13;;;;;;;4.82;3.75;;;;;;;;;;5048774;28;20180;-74
2021/06/16 13:34:42;;;;;;;4.85;3.90;;;;;;;;;;5052842;28;20258;-74
2021/06/16 13:37:07;;;;;;;5.97;4.38;;;;;;;;;;5053288;28;20181;-74
2021/06/16 13:39:33;;;;;;;9.73;4.43;;;;;;;;;;5068303;28;20248;-74
2021/06/16 13:42:00;;;;;;;6.60;3.90;;;;;;;;;;5059278;28;20200;-74
2021/06/16 13:44:26;;;;;;;8.93;4.55;;;;;;;;;;5051955;28;20195;-74
2021/06/16 13:46:51;;;;;;;5.95;3.75;;;;;;;;;;5050967;28;20211;-74
2021/06/16 13:49:16;;;;;;;6.37;4.07;;;;;;;;;;5052018;28;20201;-74
2021/06/16 13:51:42;;;;;;;5.40;3.40;;;;;;;;;;5052158;28;20180;-74
2021/06/16 13:54:07;;;;;;;5.35;4.05;;;;;;;;;;5049528;28;21832;-73
2021/06/16 13:56:32;;;;;;;5.93;3.93;;;;;;;;;;5050341;28;20784;-74
2021/06/16 13:58:57;;;;;;;5.23;3.87;;;;;;;;;;5053218;28;20809;-75
2021/06/16 14:01:23;;;;;;;5.80;4.00;;;;;;;;;;5057192;28;20705;-75
2021/06/16 14:03:48;;;;;;;4.90;4.22;;;;;;;;;;5061103;28;20423;-75
2021/06/16 14:06:13;;;;;;;5.70;4.73;;;;;;;;;;5056108;28;20187;-75
2021/06/16 14:08:38;;;;;;;5.97;4.50;;;;;;;;;;5052214;28;20600;-76
2021/06/16 14:11:03;;;;;;;7.87;4.80;;;;;;;;;;5050971;28;20674;-75
2021/06/16 14:13:29;;;;;;;7.07;4.63;;;;;;;;;;5053405;28;20447;-75
2021/06/16 14:15:54;;;;;;;7.18;4.20;;;;;;;;;;5057078;28;21009;-75
2021/06/16 14:18:19;;;;;;;7.38;4.15;;;;;;;;;;5048797;28;20214;-75
2021/06/16 14:20:45;;;;;;;8.52;4.28;;;;;;;;;;5050053;28;21819;-74
2021/06/16 14:23:11;;;;;;;5.38;4.32;;;;;;;;;;5055250;28;20201;-74
2021/06/16 14:25:36;;;;;;;6.20;4.78;;;;;;;;;;5052896;28;20173;-74
2021/06/16 14:28:02;;;;;;;4.80;4.30;;;;;;;;;;5054345;28;20191;-75
2021/06/16 14:30:27;;;;;;;6.03;4.30;;;;;;;;;;5060650;28;20208;-75
2021/06/16 14:32:52;;;;;;;4.50;4.10;;;;;;;;;;5064680;28;20236;-75
2021/06/16 14:35:18;;;;;;;7.70;4.20;;;;;;;;;;5080362;28;20874;-75
2021/06/16 14:37:44;;;;;;;6.57;4.03;;;;;;;;;;5069180;28;20259;-75
2021/06/16 14:40:11;;;;;;;4.65;3.80;;;;;;;;;;5057838;28;20250;-74
2021/06/16 14:42:36;;;;;;;6.47;4.18;;;;;;;;;;5055713;28;20558;-74